Time;durP1;ratioP1;P1;durP2;ratioP2;P2;SDS_P1;SDS_P2;PMS_P1;PMS_P2;Temp;Humidity;BMP_temperature;BMP_pressure;BME280_temperature;BME280_humidity;BME280_pressure;Samples;Min_cycle;Max_cycle;Signal;HPM_P1;HPM_P2
2021/10/08 00:01:11;;;;;;;137.10;128.80;;;;;;;;;;5054465;28;20483;-77
2021/10/08 00:03:38;;;;;;;131.50;123.60;;;;;;;;;;5055148;28;20450;-75
2021/10/08 00:06:05;;;;;;;134.20;126.00;;;;;;;;;;5053916;28;20443;-76
2021/10/08 00:08:33;;;;;;;127.73;119.73;;;;;;;;;;5054920;28;20478;-80
2021/10/08 00:11:00;;;;;;;129.57;121.57;;;;;;;;;;5052742;28;20460;-77
2021/10/08 00:13:27;;;;;;;133.13;125.20;;;;;;;;;;5052835;28;20950;-78
2021/10/08 00:15:55;;;;;;;132.57;124.50;;;;;;;;;;5053045;28;20486;-80
2021/10/08 00:18:22;;;;;;;130.93;123.20;;;;;;;;;;5054595;28;20994;-75
2021/10/08 00:20:50;;;;;;;133.40;125.50;;;;;;;;;;5053722;28;20460;-75
2021/10/08 00:23:17;;;;;;;128.60;120.90;;;;;;;;;;5055358;28;20459;-76
2021/10/08 00:25:44;;;;;;;128.30;120.50;;;;;;;;;;5054445;28;20460;-80
2021/10/08 00:28:11;;;;;;;128.33;120.53;;;;;;;;;;5055176;28;20464;-76
2021/10/08 00:30:38;;;;;;;124.30;116.80;;;;;;;;;;5050617;28;20490;-79
2021/10/08 00:33:07;;;;;;;127.00;119.33;;;;;;;;;;5035309;28;20452;-75
2021/10/08 00:35:34;;;;;;;130.77;123.07;;;;;;;;;;5050412;28;20488;-76
2021/10/08 00:38:03;;;;;;;129.43;121.83;;;;;;;;;;5054646;28;20479;-78
2021/10/08 00:40:33;;;;;;;127.97;120.37;;;;;;;;;;5053530;28;20458;-76
2021/10/08 00:43:01;;;;;;;128.73;121.23;;;;;;;;;;5053632;28;20458;-79
2021/10/08 00:45:28;;;;;;;125.83;118.27;;;;;;;;;;5053869;28;20451;-76
2021/10/08 00:47:58;;;;;;;123.73;116.33;;;;;;;;;;5054997;28;20486;-75
2021/10/08 00:50:27;;;;;;;125.23;117.93;;;;;;;;;;5054782;28;20474;-80
2021/10/08 00:52:54;;;;;;;125.17;117.97;;;;;;;;;;5054799;28;20460;-78
2021/10/08 00:55:21;;;;;;;123.63;116.53;;;;;;;;;;5054346;28;20486;-75
2021/10/08 00:57:48;;;;;;;129.93;122.47;;;;;;;;;;5053392;28;21014;-75
2021/10/08 01:00:16;;;;;;;126.90;119.50;;;;;;;;;;5054229;28;20475;-81
2021/10/08 01:02:44;;;;;;;128.10;120.77;;;;;;;;;;5054227;28;20455;-77
2021/10/08 01:05:11;;;;;;;124.80;117.70;;;;;;;;;;5053692;28;20455;-74
2021/10/08 01:07:40;;;;;;;126.50;118.83;;;;;;;;;;5053963;28;21033;-76
2021/10/08 01:10:08;;;;;;;123.50;116.40;;;;;;;;;;5053632;28;20464;-77
2021/10/08 01:12:36;;;;;;;121.33;114.43;;;;;;;;;;5054032;28;20451;-75
2021/10/08 01:15:03;;;;;;;124.50;117.33;;;;;;;;;;5052804;28;20483;-76
2021/10/08 01:17:30;;;;;;;122.13;115.13;;;;;;;;;;5053619;28;20483;-74
2021/10/08 01:20:02;;;;;;;123.23;116.03;;;;;;;;;;5053726;28;20451;-75
2021/10/08 01:22:29;;;;;;;118.13;111.13;;;;;;;;;;5043515;28;20827;-75
2021/10/08 01:24:56;;;;;;;119.80;113.00;;;;;;;;;;5053507;28;20466;-78
2021/10/08 01:27:24;;;;;;;118.47;111.57;;;;;;;;;;5040709;28;20494;-74
2021/10/08 01:29:52;;;;;;;116.07;109.37;;;;;;;;;;5054561;28;20444;-81
2021/10/08 01:32:20;;;;;;;115.97;109.23;;;;;;;;;;5053053;28;20440;-77
2021/10/08 01:34:47;;;;;;;120.53;113.70;;;;;;;;;;5053559;28;20491;-79
2021/10/08 01:37:16;;;;;;;121.00;114.20;;;;;;;;;;5053351;28;20495;-78
2021/10/08 01:39:43;;;;;;;120.67;113.80;;;;;;;;;;5036812;28;20463;-81
2021/10/08 01:42:10;;;;;;;118.50;111.80;;;;;;;;;;5048481;28;20463;-81
2021/10/08 01:44:37;;;;;;;116.20;109.60;;;;;;;;;;5052587;28;20974;-78
2021/10/08 01:47:05;;;;;;;116.90;110.10;;;;;;;;;;5053193;28;20468;-78
2021/10/08 01:49:32;;;;;;;115.67;108.90;;;;;;;;;;5053037;28;20448;-74
2021/10/08 01:51:59;;;;;;;118.13;111.27;;;;;;;;;;5052376;28;20955;-77
2021/10/08 01:54:28;;;;;;;119.40;112.67;;;;;;;;;;5052032;28;20462;-80
2021/10/08 01:56:55;;;;;;;116.97;110.37;;;;;;;;;;5053122;28;20472;-76
2021/10/08 01:59:22;;;;;;;118.10;111.50;;;;;;;;;;5052552;28;20467;-77
2021/10/08 02:01:49;;;;;;;114.80;108.20;;;;;;;;;;5052199;28;20819;-80
2021/10/08 02:04:16;;;;;;;111.47;104.97;;;;;;;;;;5053230;28;20450;-77
2021/10/08 02:06:43;;;;;;;108.03;101.83;;;;;;;;;;5053103;28;20459;-77
2021/10/08 02:09:11;;;;;;;108.30;102.10;;;;;;;;;;5053023;28;20451;-75
2021/10/08 02:11:39;;;;;;;113.30;106.90;;;;;;;;;;5051468;28;20487;-70
2021/10/08 02:14:07;;;;;;;113.50;106.90;;;;;;;;;;5052730;28;20652;-81
2021/10/08 02:16:34;;;;;;;110.70;104.30;;;;;;;;;;5050750;28;20484;-78
2021/10/08 02:19:01;;;;;;;112.47;106.07;;;;;;;;;;5109131;22;20501;-71
2021/10/08 02:21:28;;;;;;;112.30;105.67;;;;;;;;;;5092937;28;20449;-73
2021/10/08 02:23:56;;;;;;;111.63;105.10;;;;;;;;;;5091732;28;21007;-69
2021/10/08 02:26:23;;;;;;;107.70;101.40;;;;;;;;;;5090993;28;20463;-72
2021/10/08 02:28:51;;;;;;;113.47;106.93;;;;;;;;;;5080781;28;20494;-74
2021/10/08 02:31:18;;;;;;;107.30;101.20;;;;;;;;;;5074545;28;20451;-70
2021/10/08 02:33:46;;;;;;;105.63;99.53;;;;;;;;;;5072657;28;20474;-74
2021/10/08 02:36:13;;;;;;;107.20;101.23;;;;;;;;;;5073981;28;20859;-71
2021/10/08 02:38:40;;;;;;;111.63;105.33;;;;;;;;;;5074822;28;20494;-74
2021/10/08 02:41:07;;;;;;;114.10;107.60;;;;;;;;;;5074782;28;20470;-71
2021/10/08 02:43:35;;;;;;;118.57;111.87;;;;;;;;;;5075961;28;20469;-71
2021/10/08 02:46:06;;;;;;;112.70;106.40;;;;;;;;;;5077111;28;20463;-75
2021/10/08 02:48:33;;;;;;;112.03;105.73;;;;;;;;;;5077729;28;20494;-72
2021/10/08 02:51:00;;;;;;;103.90;98.07;;;;;;;;;;5078460;28;20443;-71
2021/10/08 02:53:27;;;;;;;105.73;99.63;;;;;;;;;;5076149;28;20823;-75
2021/10/08 02:55:54;;;;;;;99.87;93.83;;;;;;;;;;5076859;28;20478;-71
2021/10/08 02:58:22;;;;;;;108.57;102.50;;;;;;;;;;5077623;28;20493;-73
2021/10/08 03:00:49;;;;;;;111.07;104.77;;;;;;;;;;5077811;28;20468;-77
2021/10/08 03:03:18;;;;;;;100.00;94.10;;;;;;;;;;5073013;28;20478;-77
2021/10/08 03:05:45;;;;;;;101.13;95.23;;;;;;;;;;5075730;28;20450;-78
2021/10/08 03:08:12;;;;;;;99.70;93.70;;;;;;;;;;5076432;28;20485;-72
2021/10/08 03:10:39;;;;;;;103.50;97.40;;;;;;;;;;5074582;28;20466;-72
2021/10/08 03:13:06;;;;;;;97.80;92.00;;;;;;;;;;5075708;28;20825;-77
2021/10/08 03:15:33;;;;;;;104.87;98.80;;;;;;;;;;5076138;28;20486;-75
2021/10/08 03:18:01;;;;;;;99.30;93.40;;;;;;;;;;5076929;28;20796;-73
2021/10/08 03:20:29;;;;;;;99.77;93.90;;;;;;;;;;5073428;28;20466;-75
2021/10/08 03:22:56;;;;;;;97.80;91.73;;;;;;;;;;5060015;28;20984;-76
2021/10/08 03:25:23;;;;;;;98.23;92.23;;;;;;;;;;5075761;28;20470;-72
2021/10/08 03:27:50;;;;;;;96.10;90.30;;;;;;;;;;5077322;28;20454;-73
2021/10/08 03:30:18;;;;;;;97.83;91.63;;;;;;;;;;5075764;28;20957;-76
2021/10/08 03:32:45;;;;;;;95.97;90.13;;;;;;;;;;5077622;28;20455;-77
2021/10/08 03:35:12;;;;;;;96.60;90.70;;;;;;;;;;5078940;28;20494;-73
2021/10/08 03:37:49;;;;;;;97.57;91.67;;;;;;;;;;5077325;28;20970;-74
2021/10/08 03:40:22;;;;;;;96.47;90.57;;;;;;;;;;5077994;28;20497;-75
2021/10/08 03:42:49;;;;;;;94.30;88.40;;;;;;;;;;5079184;28;20451;-75
2021/10/08 03:45:16;;;;;;;100.03;94.13;;;;;;;;;;5077330;28;20553;-75
2021/10/08 03:47:56;;;;;;;99.07;93.07;;;;;;;;;;5077990;28;20843;-73
2021/10/08 03:50:24;;;;;;;98.60;92.70;;;;;;;;;;5078340;28;20455;-75
2021/10/08 03:52:52;;;;;;;101.27;94.93;;;;;;;;;;5079529;28;20467;-72
2021/10/08 03:55:19;;;;;;;96.93;91.13;;;;;;;;;;5082083;28;20490;-74
2021/10/08 03:57:47;;;;;;;96.77;90.57;;;;;;;;;;5081362;28;20485;-75
2021/10/08 04:00:14;;;;;;;101.23;95.03;;;;;;;;;;5084734;28;20458;-72
2021/10/08 04:02:41;;;;;;;95.63;89.53;;;;;;;;;;5083981;28;20915;-72
2021/10/08 04:05:08;;;;;;;97.00;90.80;;;;;;;;;;5085484;28;20463;-73
2021/10/08 04:07:36;;;;;;;96.80;91.00;;;;;;;;;;5084486;28;20449;-73
2021/10/08 04:10:04;;;;;;;97.70;91.70;;;;;;;;;;5079254;28;20486;-71
2021/10/08 04:12:31;;;;;;;93.80;88.00;;;;;;;;;;5080660;28;20447;-72
2021/10/08 04:14:58;;;;;;;94.90;88.90;;;;;;;;;;5078905;28;20498;-71
2021/10/08 04:17:26;;;;;;;90.73;84.93;;;;;;;;;;5078304;28;20460;-70
2021/10/08 04:19:53;;;;;;;93.37;87.47;;;;;;;;;;5077452;28;20501;-70
2021/10/08 04:22:20;;;;;;;100.77;94.47;;;;;;;;;;5078797;28;20447;-72
2021/10/08 04:24:47;;;;;;;94.90;88.87;;;;;;;;;;5077191;28;20462;-69
2021/10/08 04:27:15;;;;;;;91.30;85.40;;;;;;;;;;5077599;28;20453;-70
2021/10/08 04:29:43;;;;;;;93.27;87.37;;;;;;;;;;5072322;28;20493;-70
2021/10/08 04:32:10;;;;;;;97.07;90.90;;;;;;;;;;5066079;28;20477;-70
2021/10/08 04:34:37;;;;;;;94.13;88.10;;;;;;;;;;5077021;28;20462;-73
2021/10/08 04:37:04;;;;;;;97.07;90.97;;;;;;;;;;5077880;28;20486;-70
2021/10/08 04:39:31;;;;;;;93.13;87.33;;;;;;;;;;5075405;28;20487;-70
2021/10/08 04:41:58;;;;;;;94.73;88.83;;;;;;;;;;5076715;28;20462;-72
2021/10/08 04:44:26;;;;;;;97.93;91.73;;;;;;;;;;5072572;28;20961;-69
2021/10/08 04:46:54;;;;;;;93.80;87.63;;;;;;;;;;5077945;28;20469;-69
2021/10/08 04:49:21;;;;;;;93.37;87.27;;;;;;;;;;5080286;28;20977;-70
2021/10/08 04:51:48;;;;;;;161.93;151.83;;;;;;;;;;5077342;28;20462;-71
2021/10/08 04:54:15;;;;;;;119.73;112.53;;;;;;;;;;5070497;28;20466;-70
2021/10/08 04:56:42;;;;;;;100.03;93.50;;;;;;;;;;5078127;28;20489;-71
2021/10/08 04:59:09;;;;;;;94.43;88.23;;;;;;;;;;5076228;28;20483;-71
2021/10/08 05:01:37;;;;;;;118.50;111.40;;;;;;;;;;5071129;28;20465;-69
2021/10/08 05:04:05;;;;;;;99.20;92.60;;;;;;;;;;5075482;28;20463;-68
2021/10/08 05:06:32;;;;;;;97.10;90.60;;;;;;;;;;5073902;28;20463;-69
2021/10/08 05:08:59;;;;;;;99.47;93.17;;;;;;;;;;5063170;28;20477;-69
2021/10/08 05:11:26;;;;;;;99.60;93.00;;;;;;;;;;5073966;28;20696;-71
2021/10/08 05:13:53;;;;;;;97.23;90.90;;;;;;;;;;5075922;28;20463;-69
2021/10/08 05:16:20;;;;;;;94.33;88.03;;;;;;;;;;5076745;28;20505;-71
2021/10/08 05:18:49;;;;;;;115.90;108.63;;;;;;;;;;5077543;28;20486;-69
2021/10/08 05:21:16;;;;;;;98.60;91.87;;;;;;;;;;5077657;28;20834;-69
2021/10/08 05:23:43;;;;;;;95.03;88.53;;;;;;;;;;5078724;28;20962;-70
2021/10/08 05:26:10;;;;;;;95.70;89.40;;;;;;;;;;5077553;28;20834;-71
2021/10/08 05:28:37;;;;;;;95.27;88.70;;;;;;;;;;5071256;28;20487;-70
2021/10/08 05:31:05;;;;;;;100.60;94.10;;;;;;;;;;5074238;28;20467;-71
2021/10/08 05:33:33;;;;;;;102.23;95.87;;;;;;;;;;5070069;28;20542;-70
2021/10/08 05:36:01;;;;;;;101.27;94.27;;;;;;;;;;5055603;28;21025;-70
2021/10/08 05:38:28;;;;;;;106.13;99.03;;;;;;;;;;5062421;28;20483;-71
2021/10/08 05:40:55;;;;;;;101.47;94.60;;;;;;;;;;5074385;28;20458;-70
2021/10/08 05:43:22;;;;;;;111.67;104.47;;;;;;;;;;5074283;28;20462;-69
2021/10/08 05:45:49;;;;;;;105.30;98.63;;;;;;;;;;5075211;28;20439;-70
2021/10/08 05:48:16;;;;;;;100.90;94.20;;;;;;;;;;5068723;28;20487;-70
2021/10/08 05:50:44;;;;;;;104.00;97.00;;;;;;;;;;5074776;28;20467;-70
2021/10/08 05:53:12;;;;;;;108.27;101.47;;;;;;;;;;5075872;28;20443;-69
2021/10/08 05:55:40;;;;;;;104.30;97.10;;;;;;;;;;5073989;28;20466;-71
2021/10/08 05:58:07;;;;;;;104.30;97.50;;;;;;;;;;5075975;28;20833;-71
2021/10/08 06:00:35;;;;;;;94.93;89.03;;;;;;;;;;5071051;28;20459;-80
2021/10/08 06:03:03;;;;;;;76.17;70.77;;;;;;;;;;5069909;28;20459;-70
2021/10/08 06:05:30;;;;;;;121.43;114.20;;;;;;;;;;5072821;28;21002;-70
2021/10/08 06:07:57;;;;;;;120.37;112.77;;;;;;;;;;5072075;28;20447;-71
2021/10/08 06:10:26;;;;;;;135.43;127.00;;;;;;;;;;5083082;28;20463;-71
2021/10/08 06:12:53;;;;;;;140.83;131.73;;;;;;;;;;5089528;28;20443;-71
2021/10/08 06:15:20;;;;;;;159.20;148.30;;;;;;;;;;5085010;28;20470;-71
2021/10/08 06:17:47;;;;;;;224.47;210.07;;;;;;;;;;5083963;28;20482;-72
2021/10/08 06:20:14;;;;;;;294.23;275.53;;;;;;;;;;5075927;28;20459;-72
2021/10/08 06:22:45;;;;;;;397.03;369.93;;;;;;;;;;5080673;28;20458;-71
2021/10/08 06:25:12;;;;;;;460.40;424.73;;;;;;;;;;5075265;28;20827;-71
2021/10/08 06:27:41;;;;;;;612.67;562.30;;;;;;;;;;5080900;28;20431;-72
2021/10/08 06:30:09;;;;;;;632.17;579.10;;;;;;;;;;5069260;28;20841;-71
2021/10/08 06:32:36;;;;;;;676.80;622.90;;;;;;;;;;5074494;28;20785;-71
2021/10/08 06:35:04;;;;;;;627.67;576.13;;;;;;;;;;5070735;28;20462;-72
2021/10/08 06:37:31;;;;;;;590.00;539.90;;;;;;;;;;5061855;28;20483;-72
2021/10/08 06:39:59;;;;;;;527.87;484.00;;;;;;;;;;5072234;28;20467;-71
2021/10/08 06:42:26;;;;;;;535.00;492.83;;;;;;;;;;5070917;28;20828;-71
2021/10/08 06:44:55;;;;;;;545.03;507.20;;;;;;;;;;5071592;28;20467;-71
2021/10/08 06:47:23;;;;;;;549.73;515.07;;;;;;;;;;5069576;28;20455;-71
2021/10/08 06:49:50;;;;;;;545.23;514.97;;;;;;;;;;5069439;28;20487;-71
2021/10/08 06:52:17;;;;;;;536.27;508.27;;;;;;;;;;5071675;28;20455;-71
2021/10/08 06:54:45;;;;;;;502.90;478.93;;;;;;;;;;5071594;28;20446;-71
2021/10/08 06:57:12;;;;;;;477.67;456.67;;;;;;;;;;5059166;28;20486;-71
2021/10/08 06:59:39;;;;;;;430.73;413.33;;;;;;;;;;5052175;28;20463;-71
2021/10/08 07:02:07;;;;;;;351.17;336.20;;;;;;;;;;5069213;28;20452;-71
2021/10/08 07:04:34;;;;;;;245.00;233.90;;;;;;;;;;5071012;28;20801;-71
2021/10/08 07:07:02;;;;;;;206.57;196.57;;;;;;;;;;5070919;28;20454;-72
2021/10/08 07:09:29;;;;;;;186.83;177.93;;;;;;;;;;5070726;28;20485;-71
2021/10/08 07:11:56;;;;;;;183.20;174.30;;;;;;;;;;5071155;28;20447;-71
2021/10/08 07:14:23;;;;;;;175.37;166.83;;;;;;;;;;5069562;28;20447;-71
2021/10/08 07:16:54;;;;;;;153.10;145.40;;;;;;;;;;5071150;28;20479;-72
2021/10/08 07:19:23;;;;;;;134.70;127.83;;;;;;;;;;5034486;28;1068577;-72
2021/10/08 07:21:50;;;;;;;126.90;120.50;;;;;;;;;;5072739;28;20204;-71
2021/10/08 07:24:17;;;;;;;119.10;113.00;;;;;;;;;;5072126;28;20458;-71
2021/10/08 07:26:44;;;;;;;109.47;103.50;;;;;;;;;;5071790;28;20447;-71
2021/10/08 07:29:11;;;;;;;101.80;96.40;;;;;;;;;;5069423;28;20501;-72
2021/10/08 07:31:39;;;;;;;93.80;88.63;;;;;;;;;;5072064;28;20964;-72
2021/10/08 07:34:06;;;;;;;99.10;94.00;;;;;;;;;;5071442;28;20973;-72
2021/10/08 07:36:34;;;;;;;88.63;83.73;;;;;;;;;;5071997;28;20509;-74
2021/10/08 07:39:01;;;;;;;85.40;80.90;;;;;;;;;;5071980;28;20463;-74
2021/10/08 07:41:29;;;;;;;75.67;71.37;;;;;;;;;;5071436;28;20451;-74
2021/10/08 07:43:56;;;;;;;73.43;69.23;;;;;;;;;;5060728;28;20458;-74
2021/10/08 07:46:24;;;;;;;71.90;67.90;;;;;;;;;;5071636;28;20455;-74
2021/10/08 07:48:51;;;;;;;66.70;62.90;;;;;;;;;;5071451;28;20920;-74
2021/10/08 07:51:18;;;;;;;64.83;60.97;;;;;;;;;;5071682;28;20450;-73
2021/10/08 07:53:46;;;;;;;58.77;55.40;;;;;;;;;;5071358;28;20443;-73
2021/10/08 07:56:14;;;;;;;70.00;66.20;;;;;;;;;;5074939;28;20489;-73
2021/10/08 07:58:41;;;;;;;62.20;58.60;;;;;;;;;;5073488;28;20528;-73
2021/10/08 08:01:08;;;;;;;58.77;55.37;;;;;;;;;;5075540;28;20454;-72
2021/10/08 08:03:35;;;;;;;54.03;51.03;;;;;;;;;;5064428;28;20475;-72
2021/10/08 08:06:03;;;;;;;62.57;59.07;;;;;;;;;;5075076;28;20443;-72
2021/10/08 08:08:30;;;;;;;56.67;53.47;;;;;;;;;;5072500;28;21007;-73
2021/10/08 08:10:58;;;;;;;62.70;59.20;;;;;;;;;;5073012;28;20458;-72
2021/10/08 08:13:25;;;;;;;56.33;53.13;;;;;;;;;;5073489;28;20451;-72
2021/10/08 08:15:52;;;;;;;58.27;54.40;;;;;;;;;;5074363;28;20443;-72
2021/10/08 08:18:19;;;;;;;52.33;49.13;;;;;;;;;;5070298;28;20490;-71
2021/10/08 08:20:47;;;;;;;49.97;46.63;;;;;;;;;;5062634;28;20451;-71
2021/10/08 08:23:14;;;;;;;52.33;49.00;;;;;;;;;;5060527;28;20450;-77
2021/10/08 08:25:41;;;;;;;47.33;44.10;;;;;;;;;;5073199;28;20451;-71
2021/10/08 08:28:09;;;;;;;44.60;41.60;;;;;;;;;;5066774;28;20463;-70
2021/10/08 08:30:39;;;;;;;40.77;38.37;;;;;;;;;;5074923;28;20440;-70
2021/10/08 08:33:06;;;;;;;42.10;39.53;;;;;;;;;;5071859;28;20463;-70
2021/10/08 08:35:33;;;;;;;37.83;35.33;;;;;;;;;;5072813;28;20992;-70
2021/10/08 08:38:01;;;;;;;39.13;36.80;;;;;;;;;;5074316;28;20478;-70
2021/10/08 08:40:29;;;;;;;36.23;34.03;;;;;;;;;;5062462;28;20938;-70
2021/10/08 08:42:56;;;;;;;34.73;32.63;;;;;;;;;;5074305;28;20455;-70
2021/10/08 08:45:25;;;;;;;34.00;31.77;;;;;;;;;;5069116;28;20459;-70
2021/10/08 08:47:58;;;;;;;32.50;30.50;;;;;;;;;;5072591;28;20459;-70
2021/10/08 08:50:26;;;;;;;33.40;31.20;;;;;;;;;;5074788;28;20464;-70
2021/10/08 08:52:53;;;;;;;31.20;29.30;;;;;;;;;;5069100;28;20462;-70
2021/10/08 08:55:20;;;;;;;29.03;27.17;;;;;;;;;;5073491;28;20455;-70
2021/10/08 08:57:47;;;;;;;30.50;28.77;;;;;;;;;;5074128;28;20486;-69
2021/10/08 09:00:17;;;;;;;31.30;29.60;;;;;;;;;;5074461;28;20467;-69
2021/10/08 09:02:46;;;;;;;32.50;30.57;;;;;;;;;;5069292;28;20467;-70
2021/10/08 09:05:18;;;;;;;29.77;28.07;;;;;;;;;;5070763;28;20463;-70
2021/10/08 09:07:45;;;;;;;31.03;29.03;;;;;;;;;;5071002;28;20510;-70
2021/10/08 09:10:13;;;;;;;30.73;28.93;;;;;;;;;;5070382;28;20855;-71
2021/10/08 09:12:41;;;;;;;30.77;28.87;;;;;;;;;;5066638;28;20823;-70
2021/10/08 09:15:08;;;;;;;29.97;28.03;;;;;;;;;;5054463;28;20451;-70
2021/10/08 09:17:35;;;;;;;29.10;26.80;;;;;;;;;;5053489;28;20475;-70
2021/10/08 09:20:05;;;;;;;29.80;28.20;;;;;;;;;;5063076;28;20556;-70
2021/10/08 09:22:50;;;;;;;25.03;23.53;;;;;;;;;;5072049;28;20450;-70
2021/10/08 09:25:19;;;;;;;29.93;28.33;;;;;;;;;;5073695;28;20427;-69
2021/10/08 09:27:48;;;;;;;28.23;26.63;;;;;;;;;;5072130;28;20543;-70
2021/10/08 09:30:15;;;;;;;26.40;25.00;;;;;;;;;;5073226;28;20447;-69
2021/10/08 09:32:44;;;;;;;25.43;23.77;;;;;;;;;;5070665;28;20962;-70
2021/10/08 09:35:14;;;;;;;26.50;25.10;;;;;;;;;;5055251;28;20455;-70
2021/10/08 09:37:42;;;;;;;24.57;23.17;;;;;;;;;;5052825;28;20494;-70
2021/10/08 09:40:22;;;;;;;24.33;22.93;;;;;;;;;;5058577;28;20516;-70
2021/10/08 09:42:49;;;;;;;25.67;24.20;;;;;;;;;;5070994;28;20531;-70
2021/10/08 09:45:34;;;;;;;26.33;24.70;;;;;;;;;;5067218;28;20973;-70
2021/10/08 09:48:01;;;;;;;25.47;24.07;;;;;;;;;;5070336;28;20432;-70
2021/10/08 09:50:29;;;;;;;25.73;24.23;;;;;;;;;;5070013;28;20934;-70
2021/10/08 09:53:08;;;;;;;24.87;23.27;;;;;;;;;;5053987;28;20447;-70
2021/10/08 09:55:35;;;;;;;23.97;22.67;;;;;;;;;;5056751;28;20439;-69
2021/10/08 09:58:03;;;;;;;24.00;22.57;;;;;;;;;;5072272;28;21028;-69
2021/10/08 10:00:37;;;;;;;23.33;22.13;;;;;;;;;;5071894;28;20945;-69
2021/10/08 10:03:05;;;;;;;22.60;21.40;;;;;;;;;;5071090;28;20453;-68
2021/10/08 10:05:34;;;;;;;22.20;21.03;;;;;;;;;;5070914;28;20450;-70
2021/10/08 10:08:01;;;;;;;22.80;21.40;;;;;;;;;;5071098;28;20442;-70
2021/10/08 10:10:29;;;;;;;21.67;20.50;;;;;;;;;;5069099;28;20454;-70
2021/10/08 10:12:56;;;;;;;22.57;21.33;;;;;;;;;;5070647;28;21009;-70
2021/10/08 10:15:24;;;;;;;21.27;20.07;;;;;;;;;;5071474;28;20458;-69
2021/10/08 10:17:52;;;;;;;22.50;21.30;;;;;;;;;;5069105;28;20478;-69
2021/10/08 10:20:19;;;;;;;21.77;20.57;;;;;;;;;;5068582;28;20454;-69
2021/10/08 10:22:48;;;;;;;22.90;21.70;;;;;;;;;;5064401;28;20900;-69
2021/10/08 10:25:16;;;;;;;22.33;21.13;;;;;;;;;;5067110;28;20443;-69
2021/10/08 10:27:43;;;;;;;22.10;20.77;;;;;;;;;;5066023;28;20449;-69
2021/10/08 10:30:11;;;;;;;21.80;20.50;;;;;;;;;;5067298;28;20482;-69
2021/10/08 10:32:38;;;;;;;21.10;20.00;;;;;;;;;;5071726;28;20937;-69
2021/10/08 10:35:06;;;;;;;21.63;20.33;;;;;;;;;;5059479;28;20447;-69
2021/10/08 10:37:37;;;;;;;22.00;20.43;;;;;;;;;;5051522;28;20982;-69
2021/10/08 10:40:18;;;;;;;21.63;20.53;;;;;;;;;;5066617;28;20470;-69
2021/10/08 10:42:45;;;;;;;22.00;20.90;;;;;;;;;;5051905;28;20520;-69
2021/10/08 10:45:18;;;;;;;21.47;20.30;;;;;;;;;;5069521;28;20453;-70
2021/10/08 10:47:47;;;;;;;21.47;20.37;;;;;;;;;;5070541;28;20447;-70
2021/10/08 10:50:17;;;;;;;20.70;19.70;;;;;;;;;;5056064;28;20520;-70
2021/10/08 10:52:48;;;;;;;20.80;19.70;;;;;;;;;;5051479;28;20509;-69
2021/10/08 10:55:15;;;;;;;20.70;19.60;;;;;;;;;;5067071;28;20983;-69
2021/10/08 10:58:06;;;;;;;20.73;19.73;;;;;;;;;;5060886;28;20485;-69
2021/10/08 11:00:38;;;;;;;20.83;19.70;;;;;;;;;;5068170;28;20449;-68
2021/10/08 11:03:11;;;;;;;20.40;19.40;;;;;;;;;;5064462;28;20815;-68
2021/10/08 11:05:40;;;;;;;19.97;18.97;;;;;;;;;;5065782;28;20969;-68
2021/10/08 11:08:14;;;;;;;20.17;19.17;;;;;;;;;;5068288;28;20521;-68
2021/10/08 11:10:42;;;;;;;20.27;19.17;;;;;;;;;;5071091;28;20452;-68
2021/10/08 11:13:27;;;;;;;19.43;18.40;;;;;;;;;;5071497;28;20454;-68
2021/10/08 11:15:55;;;;;;;20.07;18.97;;;;;;;;;;5069689;28;20451;-68
2021/10/08 11:18:40;;;;;;;21.00;19.90;;;;;;;;;;5070343;28;20864;-68
2021/10/08 11:21:07;;;;;;;20.00;19.00;;;;;;;;;;5067100;28;20454;-68
2021/10/08 11:23:37;;;;;;;20.27;19.27;;;;;;;;;;5071202;28;20454;-68
2021/10/08 11:26:06;;;;;;;19.83;18.70;;;;;;;;;;5072809;28;20457;-68
2021/10/08 11:28:35;;;;;;;20.07;19.07;;;;;;;;;;5074837;28;20462;-68
2021/10/08 11:31:03;;;;;;;18.60;17.70;;;;;;;;;;5074383;28;20516;-70
2021/10/08 11:33:34;;;;;;;23.17;21.77;;;;;;;;;;5073949;28;20481;-70
2021/10/08 11:36:11;;;;;;;22.13;20.93;;;;;;;;;;5073913;28;20446;-70
2021/10/08 11:38:38;;;;;;;22.00;20.90;;;;;;;;;;5074620;28;20481;-70
2021/10/08 11:41:15;;;;;;;22.80;21.50;;;;;;;;;;5072276;28;20457;-70
2021/10/08 11:43:44;;;;;;;22.80;21.70;;;;;;;;;;5073166;28;20454;-69
2021/10/08 11:46:30;;;;;;;23.17;22.00;;;;;;;;;;5072374;28;20484;-69
2021/10/08 11:49:01;;;;;;;22.87;21.77;;;;;;;;;;5061390;28;20472;-71
2021/10/08 11:51:28;;;;;;;22.30;21.30;;;;;;;;;;5074681;28;20471;-68
2021/10/08 11:53:56;;;;;;;21.70;20.60;;;;;;;;;;5074685;28;20442;-69
2021/10/08 11:56:27;;;;;;;21.90;20.80;;;;;;;;;;5073662;28;20450;-69
2021/10/08 11:59:09;;;;;;;21.27;20.17;;;;;;;;;;5073176;28;20481;-68
2021/10/08 12:01:37;;;;;;;22.40;21.20;;;;;;;;;;5060466;28;20582;-70
2021/10/08 12:04:05;;;;;;;22.20;21.10;;;;;;;;;;5063502;28;20457;-70
2021/10/08 12:06:32;;;;;;;22.50;21.40;;;;;;;;;;5073910;28;20537;-71
2021/10/08 12:09:03;;;;;;;22.27;21.07;;;;;;;;;;5074281;28;20901;-70
2021/10/08 12:11:31;;;;;;;22.87;21.67;;;;;;;;;;5073994;28;20450;-71
2021/10/08 12:14:04;;;;;;;21.60;20.50;;;;;;;;;;5067130;28;20446;-70
2021/10/08 12:16:38;;;;;;;22.13;21.03;;;;;;;;;;5073731;28;20538;-69
2021/10/08 12:19:06;;;;;;;22.60;21.50;;;;;;;;;;5068341;28;20481;-71
2021/10/08 12:21:36;;;;;;;21.87;20.67;;;;;;;;;;5073617;28;20450;-72
2021/10/08 12:24:05;;;;;;;21.93;20.83;;;;;;;;;;5072103;28;20458;-72
2021/10/08 12:26:33;;;;;;;22.07;20.93;;;;;;;;;;5063581;28;20474;-69
2021/10/08 12:29:02;;;;;;;21.80;20.70;;;;;;;;;;5065735;28;21077;-68
2021/10/08 12:31:46;;;;;;;18.83;17.73;;;;;;;;;;5073692;28;20450;-69
2021/10/08 12:34:13;;;;;;;21.67;20.57;;;;;;;;;;5073785;28;20960;-69
2021/10/08 12:36:40;;;;;;;21.80;20.70;;;;;;;;;;5070361;28;20826;-68
2021/10/08 12:39:08;;;;;;;22.20;21.10;;;;;;;;;;5070587;28;20494;-69
2021/10/08 12:41:42;;;;;;;22.30;21.20;;;;;;;;;;5073557;28;20454;-68
2021/10/08 12:44:13;;;;;;;21.93;20.83;;;;;;;;;;5071031;28;20446;-69
2021/10/08 12:46:42;;;;;;;22.53;21.43;;;;;;;;;;5065772;28;20933;-69
2021/10/08 12:49:09;;;;;;;22.80;21.57;;;;;;;;;;5072629;28;20477;-68
2021/10/08 12:51:46;;;;;;;22.50;21.40;;;;;;;;;;5072728;28;20441;-68
2021/10/08 12:54:14;;;;;;;22.27;21.13;;;;;;;;;;5073367;28;20461;-69
2021/10/08 12:56:41;;;;;;;22.73;21.60;;;;;;;;;;5071936;28;21154;-68
2021/10/08 12:59:08;;;;;;;23.07;21.87;;;;;;;;;;5072153;28;20487;-69
2021/10/08 13:01:37;;;;;;;23.40;22.20;;;;;;;;;;5071451;28;20950;-69
2021/10/08 13:04:28;;;;;;;24.37;23.13;;;;;;;;;;5072977;28;20978;-69
2021/10/08 13:07:10;;;;;;;24.10;22.80;;;;;;;;;;5057148;28;20459;-69
2021/10/08 13:09:37;;;;;;;24.17;22.87;;;;;;;;;;5072881;28;20474;-69
2021/10/08 13:12:04;;;;;;;21.93;20.73;;;;;;;;;;5073007;28;20443;-72
2021/10/08 13:14:31;;;;;;;22.37;21.27;;;;;;;;;;5066752;28;20832;-69
2021/10/08 13:17:16;;;;;;;23.97;22.67;;;;;;;;;;5067581;28;20447;-70
2021/10/08 13:19:43;;;;;;;22.63;21.53;;;;;;;;;;5072014;28;20482;-70
2021/10/08 13:22:10;;;;;;;23.53;22.33;;;;;;;;;;5073248;28;20443;-70
2021/10/08 13:24:37;;;;;;;24.33;22.97;;;;;;;;;;5072420;28;20451;-70
2021/10/08 13:27:04;;;;;;;24.20;23.00;;;;;;;;;;5070393;28;20443;-70
2021/10/08 13:29:31;;;;;;;24.30;23.10;;;;;;;;;;5072797;28;20474;-71
2021/10/08 13:32:01;;;;;;;24.40;23.20;;;;;;;;;;5072969;28;20956;-70
2021/10/08 13:34:28;;;;;;;26.93;25.53;;;;;;;;;;5072066;28;20825;-70
2021/10/08 13:36:55;;;;;;;25.40;24.10;;;;;;;;;;5072917;28;20453;-70
2021/10/08 13:39:22;;;;;;;24.13;22.83;;;;;;;;;;5067910;28;20487;-72
2021/10/08 13:41:50;;;;;;;28.00;26.50;;;;;;;;;;5067745;28;20943;-69
2021/10/08 13:44:17;;;;;;;25.27;23.90;;;;;;;;;;5071535;28;20459;-70
2021/10/08 13:46:44;;;;;;;24.37;23.07;;;;;;;;;;5062170;28;20502;-69
2021/10/08 13:49:12;;;;;;;25.90;24.40;;;;;;;;;;5072127;28;21024;-70
2021/10/08 13:51:39;;;;;;;24.80;23.50;;;;;;;;;;5072325;28;20458;-70
2021/10/08 13:54:06;;;;;;;24.63;23.33;;;;;;;;;;5068825;28;20967;-70
2021/10/08 13:56:33;;;;;;;25.70;24.30;;;;;;;;;;5056762;28;20452;-69
2021/10/08 13:59:00;;;;;;;24.60;23.30;;;;;;;;;;5068657;28;20486;-69
2021/10/08 14:01:28;;;;;;;25.00;23.60;;;;;;;;;;5073555;28;20760;-70
2021/10/08 14:04:01;;;;;;;24.63;23.40;;;;;;;;;;5072580;28;20451;-69
2021/10/08 14:10:15;;;;;;;26.20;24.80;;;;;;;;;;5073235;28;20584;-69
2021/10/08 14:12:07;;;;;;;28.00;26.40;;;;;;;;;;5068279;28;20459;-70
2021/10/08 14:14:34;;;;;;;30.30;28.60;;;;;;;;;;5064750;28;20829;-70
2021/10/08 14:17:01;;;;;;;30.97;29.17;;;;;;;;;;5069703;28;20466;-70
2021/10/08 14:19:28;;;;;;;32.50;30.60;;;;;;;;;;5072617;28;20491;-69